Time;durP1;ratioP1;P1;durP2;ratioP2;P2;SDS_P1;SDS_P2;PMS_P1;PMS_P2;Temp;Humidity;BMP_temperature;BMP_pressure;BME280_temperature;BME280_humidity;BME280_pressure;Samples;Min_cycle;Max_cycle;Signal;HPM_P1;HPM_P2
2022/04/08 00:00:47;;;;;;;2.80;0.50;;;10.50;73.70;;;;;;5055543;28;20023;-77
2022/04/08 00:03:13;;;;;;;3.78;0.57;;;10.50;75.50;;;;;;5073306;28;20020;-78
2022/04/08 00:05:38;;;;;;;5.80;0.50;;;10.40;77.70;;;;;;5055743;28;20074;-77
2022/04/08 00:08:04;;;;;;;3.10;0.60;;;10.40;79.20;;;;;;5054451;28;20097;-78
2022/04/08 00:10:30;;;;;;;4.53;0.63;;;10.30;80.50;;;;;;5073087;28;20106;-78
2022/04/08 00:12:57;;;;;;;2.75;0.60;;;10.30;81.80;;;;;;5054734;28;20460;-78
2022/04/08 00:15:23;;;;;;;1.45;0.40;;;10.20;83.10;;;;;;5055115;28;20031;-78
2022/04/08 00:17:48;;;;;;;3.22;0.80;;;10.20;84.10;;;;;;5072934;28;20029;-78
2022/04/08 00:20:14;;;;;;;1.95;0.40;;;10.20;85.50;;;;;;5072405;28;20028;-78
2022/04/08 00:22:41;;;;;;;2.90;0.43;;;10.20;86.60;;;;;;5054898;28;20055;-78
2022/04/08 00:25:09;;;;;;;2.97;0.32;;;10.10;87.30;;;;;;5054839;28;20123;-78
2022/04/08 00:27:34;;;;;;;2.17;0.60;;;10.10;88.50;;;;;;5055025;28;20043;-78
2022/04/08 00:30:00;;;;;;;3.60;0.47;;;10.10;89.00;;;;;;5054609;28;20509;-78
2022/04/08 00:32:27;;;;;;;1.85;0.50;;;10.10;89.30;;;;;;5054896;28;20016;-77
2022/04/08 00:34:53;;;;;;;3.58;0.60;;;10.10;90.40;;;;;;5057348;28;20021;-77
2022/04/08 00:37:19;;;;;;;4.95;0.75;;;10.10;91.10;;;;;;5076712;28;20061;-77
2022/04/08 00:39:44;;;;;;;5.97;1.23;;;10.00;91.40;;;;;;5076412;28;20021;-77
2022/04/08 00:42:13;;;;;;;4.13;0.65;;;10.00;91.10;;;;;;5076469;28;20082;-78
2022/04/08 00:44:39;;;;;;;5.32;0.80;;;10.00;91.90;;;;;;5076622;28;20330;-77
2022/04/08 00:47:05;;;;;;;1.48;0.50;;;10.00;90.90;;;;;;5058436;28;20029;-78
2022/04/08 00:49:33;;;;;;;2.83;0.60;;;10.00;90.60;;;;;;5059016;28;20059;-78
2022/04/08 00:52:00;;;;;;;4.57;0.90;;;10.00;90.10;;;;;;5058384;28;20495;-78
2022/04/08 00:54:26;;;;;;;3.05;0.68;;;9.90;89.90;;;;;;5076551;28;20113;-77
2022/04/08 00:56:52;;;;;;;3.60;0.52;;;9.90;87.50;;;;;;5058825;28;20469;-77
2022/04/08 00:59:18;;;;;;;3.47;0.70;;;9.90;86.80;;;;;;5075948;28;20103;-78
2022/04/08 01:01:44;;;;;;;7.13;0.85;;;9.90;85.60;;;;;;5058574;28;20103;-78
2022/04/08 01:04:10;;;;;;;3.28;0.80;;;9.90;85.00;;;;;;5058135;28;20021;-78
2022/04/08 01:06:36;;;;;;;3.83;0.88;;;9.90;85.30;;;;;;5058239;28;20021;-77
2022/04/08 01:09:01;;;;;;;8.13;0.73;;;9.90;84.00;;;;;;5057896;28;20036;-78
2022/04/08 01:11:27;;;;;;;4.05;0.73;;;9.90;82.30;;;;;;5058498;28;20024;-78
2022/04/08 01:13:53;;;;;;;5.32;0.93;;;10.00;82.40;;;;;;5076291;28;20059;-77
2022/04/08 01:16:19;;;;;;;2.70;0.75;;;10.00;82.90;;;;;;5057900;28;20031;-78
2022/04/08 01:18:45;;;;;;;3.58;0.77;;;10.00;82.60;;;;;;5076012;28;20023;-77
2022/04/08 01:21:11;;;;;;;4.05;1.00;;;10.00;82.50;;;;;;5057785;28;20108;-78
2022/04/08 01:23:36;;;;;;;6.13;0.80;;;10.00;82.30;;;;;;5057974;28;20078;-77
2022/04/08 01:26:06;;;;;;;3.63;0.80;;;10.00;83.50;;;;;;5075589;28;20100;-78
2022/04/08 01:28:32;;;;;;;3.30;0.70;;;10.10;84.30;;;;;;5057994;28;20025;-78
2022/04/08 01:30:58;;;;;;;3.42;0.57;;;10.00;86.90;;;;;;5075565;28;20021;-78
2022/04/08 01:33:24;;;;;;;2.85;0.73;;;10.10;90.00;;;;;;5076111;28;20025;-77
2022/04/08 01:35:49;;;;;;;2.83;0.57;;;10.00;91.90;;;;;;5057939;28;20024;-77
2022/04/08 01:38:15;;;;;;;3.42;0.60;;;10.00;93.00;;;;;;5075189;28;20348;-77
2022/04/08 01:40:41;;;;;;;2.88;0.65;;;10.00;93.90;;;;;;5075592;28;20037;-78
2022/04/08 01:43:06;;;;;;;3.65;0.65;;;10.00;94.70;;;;;;5057224;28;20458;-78
2022/04/08 01:45:32;;;;;;;4.60;0.57;;;9.90;95.10;;;;;;5056795;28;20031;-77
2022/04/08 01:47:57;;;;;;;5.10;1.02;;;9.90;95.40;;;;;;5057636;28;20476;-79
2022/04/08 01:50:23;;;;;;;5.57;0.60;;;9.90;95.80;;;;;;5057954;28;20027;-78
2022/04/08 01:52:49;;;;;;;5.75;0.80;;;9.90;95.80;;;;;;5057970;28;20020;-76
2022/04/08 01:55:15;;;;;;;5.65;0.90;;;9.90;95.50;;;;;;5057282;28;20020;-77
2022/04/08 01:57:41;;;;;;;4.47;1.10;;;9.80;95.00;;;;;;5057842;28;20028;-77
2022/04/08 02:00:09;;;;;;;4.38;0.85;;;9.80;95.20;;;;;;5057317;28;20032;-76
2022/04/08 02:02:35;;;;;;;4.10;0.68;;;9.80;94.80;;;;;;5057661;28;20031;-77
2022/04/08 02:05:02;;;;;;;1.98;0.50;;;9.80;95.40;;;;;;5057276;28;20111;-77
2022/04/08 02:07:28;;;;;;;6.40;0.98;;;9.80;95.20;;;;;;5075282;28;20020;-77
2022/04/08 02:09:54;;;;;;;2.53;0.50;;;9.80;95.60;;;;;;5075253;28;20027;-77
2022/04/08 02:12:21;;;;;;;3.42;0.57;;;9.80;95.60;;;;;;5056623;28;20017;-77
2022/04/08 02:14:46;;;;;;;2.30;0.60;;;9.80;95.20;;;;;;5075416;28;20017;-77
2022/04/08 02:17:12;;;;;;;4.65;0.80;;;9.70;95.10;;;;;;5056786;28;20393;-77
2022/04/08 02:19:38;;;;;;;3.17;0.70;;;9.80;95.30;;;;;;5057350;28;20021;-77
2022/04/08 02:22:04;;;;;;;5.43;0.73;;;9.80;95.60;;;;;;5074512;28;20027;-77
2022/04/08 02:24:31;;;;;;;3.60;0.52;;;9.80;95.70;;;;;;5075099;28;20040;-77
2022/04/08 02:26:56;;;;;;;2.55;0.60;;;9.70;95.90;;;;;;5057203;28;20449;-77
2022/04/08 02:29:22;;;;;;;2.30;0.40;;;9.70;95.80;;;;;;5056449;28;20027;-77
2022/04/08 02:31:48;;;;;;;2.75;0.55;;;9.70;95.90;;;;;;5057183;28;20030;-76
2022/04/08 02:34:14;;;;;;;5.35;0.80;;;9.70;96.00;;;;;;5056494;28;20408;-77
2022/04/08 02:36:40;;;;;;;5.38;0.73;;;9.70;96.20;;;;;;5056990;28;20396;-77
2022/04/08 02:39:06;;;;;;;4.90;0.60;;;9.70;96.40;;;;;;5056217;28;20028;-77
2022/04/08 02:41:32;;;;;;;3.50;0.52;;;9.80;96.50;;;;;;5074948;28;20365;-77
2022/04/08 02:43:58;;;;;;;4.10;0.63;;;9.70;96.70;;;;;;5056748;28;20024;-78
2022/04/08 02:46:23;;;;;;;4.25;0.70;;;9.70;96.60;;;;;;5073741;28;20052;-78
2022/04/08 02:48:49;;;;;;;3.95;0.65;;;9.70;96.80;;;;;;5056564;28;20047;-77
2022/04/08 02:51:14;;;;;;;5.75;0.88;;;9.70;96.50;;;;;;5056002;28;20025;-77
2022/04/08 02:53:40;;;;;;;5.07;0.55;;;9.70;96.50;;;;;;5056968;28;20343;-77
2022/04/08 02:56:06;;;;;;;4.47;0.75;;;9.70;96.50;;;;;;5056204;28;20016;-76
2022/04/08 02:58:31;;;;;;;2.45;0.73;;;9.70;96.60;;;;;;5056982;28;20039;-77
2022/04/08 03:00:59;;;;;;;3.42;0.85;;;9.60;96.70;;;;;;5056818;28;20039;-77
2022/04/08 03:03:26;;;;;;;2.10;0.57;;;9.60;96.70;;;;;;5056425;28;20111;-77
2022/04/08 03:05:52;;;;;;;4.93;0.82;;;9.60;96.60;;;;;;5074385;28;20334;-77
2022/04/08 03:08:18;;;;;;;3.92;0.75;;;9.60;96.70;;;;;;5055974;28;20515;-77
2022/04/08 03:10:43;;;;;;;3.47;0.65;;;9.60;96.80;;;;;;5056567;28;20024;-77
2022/04/08 03:13:10;;;;;;;2.58;0.50;;;9.60;96.60;;;;;;5055947;28;20017;-77
2022/04/08 03:15:35;;;;;;;7.80;0.70;;;9.50;96.50;;;;;;5074182;28;20016;-77
2022/04/08 03:18:01;;;;;;;2.28;0.50;;;9.50;96.80;;;;;;5056520;28;20082;-77
2022/04/08 03:20:27;;;;;;;5.25;0.68;;;9.50;96.60;;;;;;5056614;28;20028;-76
2022/04/08 03:22:53;;;;;;;6.13;0.80;;;9.50;96.90;;;;;;5073813;28;20489;-76
2022/04/08 03:25:19;;;;;;;7.03;0.68;;;9.40;96.90;;;;;;5073308;28;20017;-76
2022/04/08 03:27:45;;;;;;;5.30;0.63;;;9.40;96.60;;;;;;5055749;28;20021;-77
2022/04/08 03:30:11;;;;;;;6.03;0.95;;;9.40;96.50;;;;;;5055505;28;20162;-77
2022/04/08 03:32:37;;;;;;;7.85;0.98;;;9.40;96.20;;;;;;5073875;28;20016;-76
2022/04/08 03:35:03;;;;;;;8.13;1.00;;;9.40;95.80;;;;;;5055887;28;20020;-76
2022/04/08 03:37:29;;;;;;;3.30;0.70;;;9.40;96.30;;;;;;5073281;28;20047;-76
2022/04/08 03:39:55;;;;;;;5.13;0.90;;;9.30;96.60;;;;;;5055871;28;20107;-76
2022/04/08 03:42:21;;;;;;;5.18;0.80;;;9.40;96.80;;;;;;5073132;28;20421;-76
2022/04/08 03:44:49;;;;;;;4.85;0.60;;;9.40;96.80;;;;;;5055732;28;20465;-76
2022/04/08 03:47:14;;;;;;;5.05;0.98;;;9.40;97.00;;;;;;5073046;28;20111;-76
2022/04/08 03:49:40;;;;;;;3.38;0.63;;;9.40;96.50;;;;;;5055774;28;20048;-76
2022/04/08 03:52:08;;;;;;;6.18;1.30;;;9.40;96.20;;;;;;5055329;28;20020;-77
2022/04/08 03:54:38;;;;;;;5.63;1.05;;;9.30;96.40;;;;;;5073334;28;20017;-76
2022/04/08 03:57:04;;;;;;;3.35;0.60;;;9.30;96.20;;;;;;5055484;28;20418;-76
2022/04/08 03:59:30;;;;;;;6.55;1.45;;;9.30;96.20;;;;;;5073257;28;20016;-76
2022/04/08 04:01:55;;;;;;;6.03;1.48;;;9.30;96.00;;;;;;5055617;28;20369;-77
2022/04/08 04:04:21;;;;;;;4.50;1.20;;;9.30;96.20;;;;;;5055150;28;20031;-77
2022/04/08 04:06:46;;;;;;;7.18;0.93;;;9.30;96.00;;;;;;5073416;28;20067;-76
2022/04/08 04:09:12;;;;;;;7.20;1.00;;;9.30;96.00;;;;;;5072597;28;20509;-77
2022/04/08 04:11:38;;;;;;;3.97;1.23;;;9.30;95.90;;;;;;5055415;28;20040;-76
2022/04/08 04:14:04;;;;;;;5.72;1.45;;;9.30;95.90;;;;;;5073202;28;20060;-77
2022/04/08 04:16:29;;;;;;;3.42;0.90;;;9.30;96.10;;;;;;5054617;28;20047;-77
2022/04/08 04:18:55;;;;;;;5.85;0.63;;;9.30;96.00;;;;;;5055213;28;20024;-76
2022/04/08 04:21:21;;;;;;;4.97;0.90;;;9.30;95.90;;;;;;5054876;28;20024;-77
2022/04/08 04:23:46;;;;;;;5.35;0.80;;;9.30;96.00;;;;;;5051443;28;20049;-77
2022/04/08 04:26:12;;;;;;;3.85;0.80;;;9.40;96.10;;;;;;5051448;28;20107;-76
2022/04/08 04:28:37;;;;;;;4.20;0.80;;;9.40;96.10;;;;;;5052953;28;20053;-77
2022/04/08 04:31:04;;;;;;;4.40;0.80;;;9.40;96.20;;;;;;5051527;28;20025;-76
2022/04/08 04:33:33;;;;;;;6.70;0.95;;;9.30;96.30;;;;;;5052743;28;20102;-76
2022/04/08 04:35:58;;;;;;;4.47;0.88;;;9.40;96.50;;;;;;5052883;28;20021;-77
2022/04/08 04:38:24;;;;;;;6.13;1.00;;;9.30;96.50;;;;;;5052602;28;20041;-76
2022/04/08 04:40:50;;;;;;;3.33;0.70;;;9.40;96.60;;;;;;5051855;28;20120;-77
2022/04/08 04:43:16;;;;;;;7.15;0.90;;;9.40;96.60;;;;;;5052267;28;20417;-77
2022/04/08 04:45:42;;;;;;;3.80;0.80;;;9.30;96.50;;;;;;5052048;28;20036;-77
2022/04/08 04:48:10;;;;;;;6.82;0.80;;;9.40;96.20;;;;;;5051249;28;20029;-78
2022/04/08 04:50:36;;;;;;;2.50;0.98;;;9.30;96.30;;;;;;5051577;28;20044;-76
2022/04/08 04:53:03;;;;;;;6.35;0.77;;;9.30;96.60;;;;;;5051487;28;20048;-76
2022/04/08 04:55:28;;;;;;;6.38;0.80;;;9.30;96.40;;;;;;5050814;28;20083;-76
2022/04/08 04:57:54;;;;;;;4.03;0.77;;;9.30;96.40;;;;;;5052544;28;20029;-76
2022/04/08 05:00:20;;;;;;;4.10;0.80;;;9.30;96.40;;;;;;5050854;28;20405;-76
2022/04/08 05:02:46;;;;;;;5.13;0.70;;;9.30;96.20;;;;;;5051292;28;20070;-76
2022/04/08 05:05:12;;;;;;;3.72;0.65;;;9.30;96.20;;;;;;5050859;28;20029;-76
2022/04/08 05:07:39;;;;;;;5.38;0.73;;;9.30;96.30;;;;;;5051684;28;20025;-76
2022/04/08 05:10:06;;;;;;;2.47;0.85;;;9.30;96.30;;;;;;5051346;28;20032;-76
2022/04/08 05:12:32;;;;;;;3.85;0.75;;;9.30;96.30;;;;;;5051159;28;20021;-76
2022/04/08 05:14:58;;;;;;;4.35;1.00;;;9.30;96.50;;;;;;5051508;28;20361;-76
2022/04/08 05:17:24;;;;;;;3.72;1.10;;;9.30;96.60;;;;;;5050762;28;20039;-76
2022/04/08 05:19:49;;;;;;;5.97;0.80;;;9.30;96.70;;;;;;5051549;28;20442;-76
2022/04/08 05:22:15;;;;;;;4.80;0.90;;;9.30;96.60;;;;;;5054436;28;20080;-77
2022/04/08 05:24:40;;;;;;;3.15;0.70;;;9.40;96.90;;;;;;5073635;28;20066;-77
2022/04/08 05:27:06;;;;;;;4.97;0.68;;;9.40;96.90;;;;;;5058345;28;20024;-77
2022/04/08 05:29:32;;;;;;;4.97;1.35;;;9.40;96.90;;;;;;5057620;28;20074;-76
2022/04/08 05:31:58;;;;;;;4.90;1.00;;;9.30;97.10;;;;;;5075990;28;20021;-76
2022/04/08 05:34:26;;;;;;;5.78;1.10;;;9.30;97.00;;;;;;5057604;28;20468;-77
2022/04/08 05:36:52;;;;;;;7.35;0.82;;;9.40;97.00;;;;;;5075724;28;20028;-77
2022/04/08 05:39:17;;;;;;;5.68;0.68;;;9.40;97.10;;;;;;5057509;28;20101;-77
2022/04/08 05:41:43;;;;;;;6.30;0.93;;;9.40;97.20;;;;;;5075522;28;20060;-77
2022/04/08 05:44:09;;;;;;;4.30;0.80;;;9.40;97.10;;;;;;5075516;28;20433;-77
2022/04/08 05:46:35;;;;;;;5.25;0.90;;;9.40;97.30;;;;;;5057075;28;20017;-77
2022/04/08 05:49:01;;;;;;;5.18;1.00;;;9.40;97.50;;;;;;5057698;28;20027;-77
2022/04/08 05:51:27;;;;;;;5.07;1.48;;;9.40;97.70;;;;;;5074999;28;20020;-77
2022/04/08 05:53:52;;;;;;;6.85;0.80;;;9.40;97.60;;;;;;5057327;28;20062;-77
2022/04/08 05:56:18;;;;;;;4.97;0.75;;;9.40;97.40;;;;;;5074616;28;20024;-77
2022/04/08 05:58:46;;;;;;;6.82;1.35;;;9.40;97.30;;;;;;5057447;28;20035;-77
2022/04/08 06:01:11;;;;;;;6.72;1.38;;;9.50;97.40;;;;;;5074904;28;20216;-77
2022/04/08 06:03:37;;;;;;;4.22;0.63;;;9.50;97.50;;;;;;5057616;28;20496;-77
2022/04/08 06:06:03;;;;;;;4.93;0.90;;;9.40;97.30;;;;;;5074998;28;20027;-77
2022/04/08 06:08:29;;;;;;;3.65;0.43;;;9.50;97.40;;;;;;5074628;28;20059;-77
2022/04/08 06:10:55;;;;;;;8.20;1.25;;;9.50;97.50;;;;;;5057055;28;20064;-77
2022/04/08 06:13:24;;;;;;;6.35;0.88;;;9.50;97.50;;;;;;5057256;28;20365;-77
2022/04/08 06:15:51;;;;;;;4.45;0.95;;;9.50;97.30;;;;;;5057053;28;20028;-77
2022/04/08 06:18:18;;;;;;;5.32;1.50;;;9.50;97.30;;;;;;5074561;28;20020;-77
2022/04/08 06:20:44;;;;;;;5.30;0.80;;;9.50;97.40;;;;;;5057225;28;20017;-76
2022/04/08 06:23:10;;;;;;;5.32;0.90;;;9.50;97.40;;;;;;5075034;28;20048;-77
2022/04/08 06:25:35;;;;;;;5.28;1.40;;;9.60;97.40;;;;;;5074578;28;20052;-77
2022/04/08 06:28:03;;;;;;;5.95;0.88;;;9.60;97.50;;;;;;5057846;28;20025;-77
2022/04/08 06:30:30;;;;;;;2.30;0.63;;;9.60;97.40;;;;;;5074587;28;20020;-77
2022/04/08 06:32:56;;;;;;;3.60;0.90;;;9.70;97.30;;;;;;5056732;28;20025;-76
2022/04/08 06:35:22;;;;;;;6.55;0.82;;;9.60;97.00;;;;;;5074602;28;20036;-77
2022/04/08 06:37:48;;;;;;;4.50;0.65;;;9.60;97.10;;;;;;5057026;28;20473;-77
2022/04/08 06:40:14;;;;;;;5.13;0.82;;;9.70;96.20;;;;;;5074763;28;20366;-76
2022/04/08 06:42:40;;;;;;;3.90;0.52;;;9.70;96.10;;;;;;5057093;28;20025;-76
2022/04/08 06:45:07;;;;;;;5.18;0.60;;;9.60;95.90;;;;;;5074661;28;20050;-76
2022/04/08 06:47:33;;;;;;;5.43;0.80;;;9.50;95.80;;;;;;5056406;28;20032;-77
2022/04/08 06:49:59;;;;;;;3.25;0.60;;;9.50;96.20;;;;;;5056877;28;20020;-77
2022/04/08 06:52:25;;;;;;;4.85;0.65;;;9.50;96.50;;;;;;5074067;28;20021;-78
2022/04/08 06:54:50;;;;;;;2.10;0.40;;;9.40;96.10;;;;;;5056653;28;20108;-77
2022/04/08 06:57:16;;;;;;;2.40;0.47;;;9.40;96.60;;;;;;5056181;28;20123;-78
2022/04/08 06:59:41;;;;;;;5.35;0.55;;;9.40;96.50;;;;;;5074373;28;20040;-77
2022/04/08 07:02:08;;;;;;;0.93;0.32;;;9.40;96.40;;;;;;5056769;28;20044;-77
2022/04/08 07:04:35;;;;;;;6.72;0.75;;;9.30;96.20;;;;;;5056097;28;20458;-76
2022/04/08 07:07:04;;;;;;;3.08;1.20;;;9.20;96.80;;;;;;5056418;28;20021;-77
2022/04/08 07:09:33;;;;;;;1.83;0.40;;;9.20;96.90;;;;;;5055848;28;20020;-77
2022/04/08 07:11:59;;;;;;;3.80;0.60;;;9.20;97.40;;;;;;5074105;28;20369;-77
2022/04/08 07:14:25;;;;;;;1.98;0.50;;;9.20;97.50;;;;;;5073473;28;20020;-77
2022/04/08 07:16:51;;;;;;;2.13;0.50;;;9.20;98.30;;;;;;5073963;28;20039;-77
2022/04/08 07:19:16;;;;;;;0.90;0.52;;;9.20;97.90;;;;;;5055590;28;20032;-79
2022/04/08 07:21:42;;;;;;;2.80;0.70;;;9.20;98.20;;;;;;5074376;28;20024;-77
2022/04/08 07:24:08;;;;;;;2.63;0.55;;;9.20;98.50;;;;;;5056625;28;20044;-78
2022/04/08 07:26:34;;;;;;;4.15;0.65;;;9.10;98.50;;;;;;5073643;28;20080;-77
2022/04/08 07:29:00;;;;;;;3.08;0.70;;;9.10;99.00;;;;;;5056138;28;20024;-77
2022/04/08 07:31:27;;;;;;;3.55;0.68;;;9.10;98.70;;;;;;5055425;28;20077;-78
2022/04/08 07:33:52;;;;;;;1.35;0.50;;;9.10;99.20;;;;;;5052156;28;20027;-78
2022/04/08 07:36:18;;;;;;;2.15;0.75;;;9.10;99.70;;;;;;5068754;28;20364;-79
2022/04/08 07:38:44;;;;;;;2.00;0.43;;;9.00;99.90;;;;;;5053597;28;20044;-78
2022/04/08 07:41:09;;;;;;;2.38;0.60;;;9.00;99.90;;;;;;5054392;28;20044;-78
2022/04/08 07:43:35;;;;;;;1.05;0.47;;;9.00;99.90;;;;;;5058581;28;20051;-78
2022/04/08 07:46:01;;;;;;;3.17;0.70;;;9.00;99.90;;;;;;5079953;28;20032;-78
2022/04/08 07:48:27;;;;;;;4.30;0.70;;;9.00;99.90;;;;;;5052290;28;20511;-78
2022/04/08 07:50:53;;;;;;;2.45;0.63;;;8.90;99.90;;;;;;5068855;28;20032;-77
2022/04/08 07:53:19;;;;;;;2.92;0.57;;;8.90;99.90;;;;;;5069536;28;20365;-78
2022/04/08 07:55:44;;;;;;;2.97;0.80;;;9.00;99.90;;;;;;5078572;28;20041;-78
2022/04/08 07:58:10;;;;;;;4.65;1.50;;;8.90;99.90;;;;;;5078268;28;20085;-78
2022/04/08 08:00:36;;;;;;;5.40;1.08;;;8.80;99.90;;;;;;5084926;28;20021;-78
2022/04/08 08:03:03;;;;;;;2.65;0.50;;;8.70;99.90;;;;;;5055400;28;20029;-78
2022/04/08 08:05:30;;;;;;;2.60;0.65;;;8.70;99.90;;;;;;5054985;28;20169;-77
2022/04/08 08:07:58;;;;;;;3.03;0.60;;;8.60;99.90;;;;;;5079799;28;20077;-78
2022/04/08 08:10:26;;;;;;;1.40;0.60;;;8.60;99.90;;;;;;5062570;28;20033;-78
2022/04/08 08:12:53;;;;;;;1.38;0.70;;;8.60;99.90;;;;;;5054856;28;20516;-78
2022/04/08 08:15:20;;;;;;;4.93;0.80;;;8.60;99.90;;;;;;5054726;28;20085;-79
2022/04/08 08:17:46;;;;;;;1.63;0.60;;;8.60;99.90;;;;;;5074023;28;20040;-78
2022/04/08 08:20:14;;;;;;;4.20;0.60;;;8.70;99.90;;;;;;5061289;28;20035;-78
2022/04/08 08:22:43;;;;;;;3.25;1.05;;;8.70;99.90;;;;;;5057162;28;20377;-78
2022/04/08 08:25:13;;;;;;;4.38;0.95;;;8.60;99.90;;;;;;5059255;28;20028;-78
2022/04/08 08:27:41;;;;;;;4.40;0.88;;;8.70;99.90;;;;;;5061120;28;20277;-77
2022/04/08 08:30:12;;;;;;;5.82;1.67;;;8.80;99.90;;;;;;5084398;28;20024;-77
2022/04/08 08:32:43;;;;;;;4.90;1.40;;;8.70;99.90;;;;;;5072838;28;20112;-77
2022/04/08 08:35:10;;;;;;;5.65;1.42;;;8.70;99.90;;;;;;5065493;28;20031;-77
2022/04/08 08:37:36;;;;;;;6.35;1.08;;;8.70;99.90;;;;;;5051438;28;20028;-77
2022/04/08 08:40:07;;;;;;;3.17;1.10;;;8.70;99.90;;;;;;5083729;28;20086;-76
2022/04/08 08:42:38;;;;;;;4.93;1.42;;;8.60;99.90;;;;;;5072435;28;20029;-77
2022/04/08 08:45:05;;;;;;;3.10;0.98;;;8.60;99.90;;;;;;5066089;28;20067;-77
2022/04/08 08:47:32;;;;;;;3.78;1.25;;;8.50;99.90;;;;;;5060929;28;20042;-77
2022/04/08 08:49:58;;;;;;;4.30;1.58;;;8.60;99.90;;;;;;5076323;28;20027;-77
2022/04/08 08:52:24;;;;;;;2.97;1.17;;;8.70;99.90;;;;;;5068219;28;20028;-77
2022/04/08 08:54:51;;;;;;;3.10;0.80;;;8.70;99.90;;;;;;5056242;28;20052;-77
2022/04/08 08:57:22;;;;;;;2.80;1.02;;;8.70;99.90;;;;;;5067843;28;20362;-77
2022/04/08 08:59:50;;;;;;;3.47;0.60;;;8.70;99.90;;;;;;5067530;28;20030;-76
2022/04/08 09:02:21;;;;;;;1.77;0.63;;;8.70;99.90;;;;;;5059677;28;20024;-77
2022/04/08 09:04:51;;;;;;;2.45;0.52;;;8.70;99.90;;;;;;5076907;28;20028;-77
2022/04/08 09:07:29;;;;;;;1.45;0.60;;;8.70;99.90;;;;;;5086180;28;20112;-77
2022/04/08 09:09:58;;;;;;;4.15;1.40;;;8.70;99.90;;;;;;5068493;28;20028;-77
2022/04/08 09:12:26;;;;;;;2.03;0.60;;;8.70;99.90;;;;;;5057646;28;20030;-78
2022/04/08 09:14:57;;;;;;;4.50;0.73;;;8.70;99.90;;;;;;5055397;28;20211;-78
2022/04/08 09:17:24;;;;;;;3.20;0.83;;;8.70;99.90;;;;;;5062706;28;20028;-78
2022/04/08 09:19:51;;;;;;;3.60;0.70;;;8.60;99.90;;;;;;5062715;28;20299;-77
2022/04/08 09:22:19;;;;;;;2.03;0.70;;;8.70;99.90;;;;;;5070795;28;20460;-77
2022/04/08 09:24:45;;;;;;;4.90;0.40;;;8.60;99.90;;;;;;5089091;28;20048;-77
2022/04/08 09:27:11;;;;;;;5.13;0.73;;;8.50;99.90;;;;;;5061499;28;20062;-76
2022/04/08 09:29:37;;;;;;;2.95;0.68;;;8.50;99.90;;;;;;5081906;28;20025;-76
2022/04/08 09:32:10;;;;;;;1.92;0.40;;;8.50;99.90;;;;;;5086756;28;20085;-76
2022/04/08 09:34:37;;;;;;;1.67;0.30;;;8.40;99.90;;;;;;5075782;28;20021;-77
2022/04/08 09:37:15;;;;;;;3.92;0.43;;;8.50;99.90;;;;;;5069122;28;20045;-77
2022/04/08 09:39:56;;;;;;;1.38;0.30;;;8.50;99.90;;;;;;5065056;28;20028;-77
2022/04/08 09:42:30;;;;;;;2.42;0.85;;;8.60;99.90;;;;;;5058195;28;20033;-76
2022/04/08 09:44:55;;;;;;;0.65;0.35;;;8.70;99.90;;;;;;5069957;28;20024;-76
2022/04/08 09:47:21;;;;;;;2.35;0.38;;;8.70;99.90;;;;;;5062629;28;20028;-77
2022/04/08 09:49:46;;;;;;;1.15;0.43;;;8.70;99.90;;;;;;5062044;28;20031;-76
2022/04/08 09:52:15;;;;;;;4.60;0.63;;;8.80;99.90;;;;;;5069929;28;20067;-76
2022/04/08 09:54:43;;;;;;;2.03;0.70;;;8.80;99.90;;;;;;5075484;28;20026;-77
2022/04/08 09:57:17;;;;;;;0.75;0.43;;;8.80;99.90;;;;;;5086048;28;20115;-77
2022/04/08 09:59:45;;;;;;;1.58;0.30;;;8.70;99.90;;;;;;5065412;28;20281;-76
2022/04/08 10:02:15;;;;;;;3.90;0.60;;;8.80;99.90;;;;;;5058891;28;20109;-77
2022/04/08 10:04:42;;;;;;;6.03;1.00;;;8.80;99.90;;;;;;5088391;28;20472;-77
2022/04/08 10:07:09;;;;;;;1.75;0.40;;;8.80;99.90;;;;;;5059866;28;20032;-77
2022/04/08 10:09:48;;;;;;;1.35;0.38;;;8.90;99.90;;;;;;5063901;28;20480;-77
2022/04/08 10:12:27;;;;;;;0.82;0.22;;;8.90;99.90;;;;;;5058660;28;20032;-77
2022/04/08 10:15:14;;;;;;;2.00;0.28;;;8.90;99.90;;;;;;5042381;28;20046;-77
2022/04/08 10:17:40;;;;;;;1.67;0.60;;;9.00;99.90;;;;;;5070969;28;20032;-77
2022/04/08 10:20:20;;;;;;;1.42;0.32;;;9.00;99.90;;;;;;5077420;28;20024;-77
2022/04/08 10:22:46;;;;;;;2.40;0.30;;;9.00;99.90;;;;;;5087743;28;20122;-77
2022/04/08 10:25:17;;;;;;;0.82;0.30;;;9.00;99.90;;;;;;5078995;28;20055;-77
2022/04/08 10:27:44;;;;;;;2.05;0.20;;;8.90;99.90;;;;;;5061956;28;20036;-77
2022/04/08 10:30:21;;;;;;;2.08;0.30;;;8.90;99.90;;;;;;5068552;28;20046;-77
2022/04/08 10:32:58;;;;;;;1.35;0.60;;;8.80;99.90;;;;;;5040249;28;20127;-77
2022/04/08 10:35:24;;;;;;;1.17;0.20;;;8.80;99.90;;;;;;5082996;28;20025;-77
2022/04/08 10:37:57;;;;;;;0.73;0.20;;;8.80;99.90;;;;;;5065099;28;20044;-77
2022/04/08 10:40:29;;;;;;;2.38;0.30;;;8.80;99.90;;;;;;5056658;28;20384;-77
2022/04/08 10:43:02;;;;;;;1.10;0.20;;;8.80;99.90;;;;;;5068873;28;20515;-77
2022/04/08 10:45:29;;;;;;;0.55;0.20;;;8.80;99.90;;;;;;5079953;28;20025;-77
2022/04/08 10:47:57;;;;;;;0.50;0.20;;;8.80;99.90;;;;;;5070566;28;20028;-78
2022/04/08 10:50:28;;;;;;;0.40;0.20;;;8.90;99.90;;;;;;5056559;28;20025;-77
2022/04/08 10:53:13;;;;;;;3.13;0.20;;;8.90;99.90;;;;;;5068611;28;20051;-77
2022/04/08 10:56:07;;;;;;;0.38;0.20;;;9.00;99.90;;;;;;5063444;28;20449;-77
2022/04/08 10:58:45;;;;;;;0.43;0.10;;;9.00;99.90;;;;;;5056050;28;20036;-77
2022/04/08 11:01:16;;;;;;;0.40;0.20;;;9.10;99.90;;;;;;5084297;28;20032;-77
2022/04/08 11:03:55;;;;;;;0.40;0.20;;;9.20;99.90;;;;;;5082077;28;20125;-77
2022/04/08 11:06:24;;;;;;;4.00;0.35;;;9.20;99.90;;;;;;5074350;28;20033;-77
2022/04/08 11:08:50;;;;;;;1.02;0.30;;;9.20;99.90;;;;;;5040924;28;20030;-77
2022/04/08 11:11:16;;;;;;;0.40;0.40;;;9.20;99.90;;;;;;5083414;28;20032;-77
2022/04/08 11:13:42;;;;;;;0.38;0.20;;;9.10;99.90;;;;;;5070182;28;20035;-77
2022/04/08 11:16:08;;;;;;;1.23;0.40;;;9.00;99.90;;;;;;5066472;28;20024;-77
2022/04/08 11:18:34;;;;;;;0.30;0.30;;;9.10;99.90;;;;;;5068676;28;20055;-77
2022/04/08 11:21:00;;;;;;;1.70;0.40;;;9.10;99.90;;;;;;5058026;28;20456;-77
2022/04/08 11:23:36;;;;;;;0.50;0.30;;;9.10;99.90;;;;;;5062987;28;20044;-78
2022/04/08 11:26:10;;;;;;;2.22;0.30;;;9.00;99.90;;;;;;5066645;28;20055;-77
2022/04/08 11:28:36;;;;;;;0.95;0.30;;;9.00;99.90;;;;;;5072987;28;20028;-77
2022/04/08 11:31:02;;;;;;;1.17;0.40;;;9.00;99.90;;;;;;5066970;28;20469;-77
2022/04/08 11:33:31;;;;;;;1.02;0.40;;;8.90;99.90;;;;;;5061733;28;20060;-78
2022/04/08 11:35:58;;;;;;;0.50;0.20;;;9.00;99.90;;;;;;5055570;28;20025;-77
2022/04/08 11:38:27;;;;;;;2.17;0.38;;;8.90;99.90;;;;;;5086584;28;20039;-78
2022/04/08 11:40:53;;;;;;;1.85;0.60;;;9.00;99.90;;;;;;5056629;28;20131;-77
2022/04/08 11:43:20;;;;;;;0.80;0.40;;;9.00;99.90;;;;;;5064284;28;20184;-77
2022/04/08 11:45:48;;;;;;;1.30;0.70;;;8.90;99.90;;;;;;5063375;28;20051;-77
2022/04/08 11:48:17;;;;;;;0.63;0.40;;;8.80;99.90;;;;;;5069753;28;20027;-77
2022/04/08 11:50:43;;;;;;;0.40;0.30;;;8.80;99.90;;;;;;5055417;28;20030;-77
2022/04/08 11:53:20;;;;;;;0.55;0.20;;;8.70;99.90;;;;;;5065708;28;20036;-77
2022/04/08 11:56:01;;;;;;;0.30;0.30;;;8.70;99.90;;;;;;5063728;28;20032;-77
2022/04/08 11:58:28;;;;;;;0.80;0.43;;;8.70;99.90;;;;;;5055779;28;20032;-78
2022/04/08 12:00:55;;;;;;;0.52;0.30;;;8.60;99.90;;;;;;5085677;28;20036;-78
2022/04/08 12:03:23;;;;;;;0.77;0.43;;;8.50;99.90;;;;;;5078644;28;20016;-77
2022/04/08 12:05:49;;;;;;;0.55;0.30;;;8.60;99.90;;;;;;5060431;28;20106;-77
2022/04/08 12:08:16;;;;;;;2.08;0.50;;;8.60;99.90;;;;;;5085951;28;20048;-78
2022/04/08 12:10:42;;;;;;;2.03;0.43;;;8.70;99.90;;;;;;5073007;28;20102;-77
2022/04/08 12:13:16;;;;;;;1.13;0.35;;;8.70;99.90;;;;;;5071736;28;20450;-77
2022/04/08 12:15:45;;;;;;;0.30;0.20;;;8.70;99.90;;;;;;5080420;28;20024;-77
2022/04/08 12:18:11;;;;;;;1.60;0.30;;;8.70;99.90;;;;;;5065290;28;20032;-77
2022/04/08 12:20:39;;;;;;;1.33;0.30;;;8.70;99.90;;;;;;5075908;28;20032;-77
2022/04/08 12:23:05;;;;;;;0.40;0.30;;;8.70;99.90;;;;;;5068666;28;20068;-76
2022/04/08 12:25:32;;;;;;;1.77;0.40;;;8.70;99.90;;;;;;5056119;28;20032;-77
2022/04/08 12:27:59;;;;;;;1.02;0.25;;;8.60;99.90;;;;;;5063301;28;20124;-77
2022/04/08 12:30:30;;;;;;;0.85;0.40;;;8.50;99.90;;;;;;5065385;28;20103;-78
2022/04/08 12:32:56;;;;;;;1.90;0.30;;;8.60;99.90;;;;;;5059745;28;20074;-77
2022/04/08 12:35:23;;;;;;;0.55;0.20;;;8.50;99.90;;;;;;5072381;28;20414;-77
2022/04/08 12:37:48;;;;;;;0.25;0.20;;;8.60;99.90;;;;;;5080027;28;20472;-77
2022/04/08 12:40:14;;;;;;;0.70;0.30;;;8.70;99.90;;;;;;5065389;28;20110;-77
2022/04/08 12:42:40;;;;;;;1.92;0.30;;;8.60;99.90;;;;;;5087740;28;20353;-77
2022/04/08 12:45:06;;;;;;;0.32;0.32;;;8.60;99.90;;;;;;5058772;28;20035;-77
2022/04/08 12:47:32;;;;;;;1.58;0.40;;;8.60;99.90;;;;;;5067229;28;20031;-77
2022/04/08 12:49:58;;;;;;;2.67;0.40;;;8.60;99.90;;;;;;5085210;28;20064;-77
2022/04/08 12:52:24;;;;;;;0.88;0.30;;;8.60;99.90;;;;;;5067220;28;20346;-77
2022/04/08 12:54:50;;;;;;;1.35;0.40;;;8.60;99.90;;;;;;5059337;28;20020;-77